Time;durP1;ratioP1;P1;durP2;ratioP2;P2;SDS_P1;SDS_P2;PMS_P1;PMS_P2;Temp;Humidity;BMP_temperature;BMP_pressure;BME280_temperature;BME280_humidity;BME280_pressure;Samples;Min_cycle;Max_cycle;Signal;HPM_P1;HPM_P2
2022/04/17 00:00:19;;;;;;;37.35;13.95;;;;;;;;;;4953977;29;20030;-76
2022/04/17 00:02:45;;;;;;;25.30;15.18;;;;;;;;;;4954579;29;20491;-76
2022/04/17 00:05:11;;;;;;;9.00;5.97;;;;;;;;;;4955872;29;20046;-76
2022/04/17 00:07:37;;;;;;;12.30;7.05;;;;;;;;;;4954487;28;20484;-75
2022/04/17 00:10:04;;;;;;;11.88;7.88;;;;;;;;;;4954408;28;20482;-77
2022/04/17 00:12:30;;;;;;;29.25;11.82;;;;;;;;;;4955947;29;20038;-78
2022/04/17 00:14:56;;;;;;;19.95;11.40;;;;;;;;;;4955661;29;20500;-76
2022/04/17 00:17:23;;;;;;;21.95;12.13;;;;;;;;;;4955912;29;20031;-77
2022/04/17 00:19:49;;;;;;;29.38;13.55;;;;;;;;;;4955636;29;20019;-76
2022/04/17 00:22:15;;;;;;;15.30;8.55;;;;;;;;;;4955538;29;20570;-77
2022/04/17 00:24:42;;;;;;;22.17;9.10;;;;;;;;;;4955448;29;20019;-76
2022/04/17 00:27:08;;;;;;;14.50;8.38;;;;;;;;;;4955197;28;20030;-77
2022/04/17 00:29:35;;;;;;;28.13;9.00;;;;;;;;;;4954116;28;20456;-76
2022/04/17 00:32:01;;;;;;;17.55;9.45;;;;;;;;;;4953160;29;20130;-76
2022/04/17 00:34:29;;;;;;;13.98;4.68;;;;;;;;;;4954715;29;20019;-77
2022/04/17 00:37:04;;;;;;;10.93;6.07;;;;;;;;;;4954690;29;20039;-76
2022/04/17 00:39:30;;;;;;;23.40;10.80;;;;;;;;;;4953350;28;20382;-76
2022/04/17 00:41:56;;;;;;;23.05;8.43;;;;;;;;;;4954405;29;20024;-76
2022/04/17 00:44:23;;;;;;;16.77;8.40;;;;;;;;;;4953803;28;20478;-77
2022/04/17 00:46:49;;;;;;;21.42;7.20;;;;;;;;;;4952806;28;20035;-76
2022/04/17 00:49:15;;;;;;;24.98;9.52;;;;;;;;;;4954936;29;20035;-76
2022/04/17 00:51:43;;;;;;;23.40;9.45;;;;;;;;;;4955006;29;20058;-76
2022/04/17 00:54:12;;;;;;;19.20;7.47;;;;;;;;;;4954668;29;20035;-77
2022/04/17 00:56:38;;;;;;;14.68;7.57;;;;;;;;;;4953791;29;20039;-78
2022/04/17 00:59:09;;;;;;;20.10;7.95;;;;;;;;;;4953628;29;20027;-77
2022/04/17 01:01:36;;;;;;;11.15;8.40;;;;;;;;;;4953462;29;20359;-77
2022/04/17 01:04:02;;;;;;;17.45;7.78;;;;;;;;;;4953506;29;20027;-76
2022/04/17 01:06:28;;;;;;;15.35;6.63;;;;;;;;;;4953405;29;20059;-78
2022/04/17 01:08:54;;;;;;;11.30;6.22;;;;;;;;;;4952129;28;20063;-76
2022/04/17 01:11:20;;;;;;;17.95;5.97;;;;;;;;;;4953445;29;20070;-77
2022/04/17 01:13:47;;;;;;;17.30;5.68;;;;;;;;;;4953001;29;20023;-81
2022/04/17 01:16:16;;;;;;;16.52;6.32;;;;;;;;;;4952676;28;20031;-78
2022/04/17 01:19:02;;;;;;;16.08;8.73;;;;;;;;;;4954187;29;20382;-77
2022/04/17 01:21:29;;;;;;;13.13;6.95;;;;;;;;;;4952712;28;20031;-76
2022/04/17 01:26:57;;;;;;;15.07;5.35;;;;;;;;;;4953204;29;20059;-77
2022/04/17 01:29:34;;;;;;;16.65;6.95;;;;;;;;;;4950498;29;20086;-77
2022/04/17 01:32:01;;;;;;;20.95;7.65;;;;;;;;;;4951678;29;20047;-76
2022/04/17 01:34:27;;;;;;;27.80;12.73;;;;;;;;;;4953872;29;20074;-77
2022/04/17 01:36:53;;;;;;;25.33;12.95;;;;;;;;;;4953922;29;20057;-77
2022/04/17 01:39:19;;;;;;;19.60;13.65;;;;;;;;;;4953678;28;20046;-77
2022/04/17 01:41:46;;;;;;;18.83;12.90;;;;;;;;;;4954139;29;20074;-77
2022/04/17 01:44:13;;;;;;;29.00;14.93;;;;;;;;;;4952390;29;20031;-77
2022/04/17 01:46:39;;;;;;;26.58;13.82;;;;;;;;;;4952484;29;20027;-77
2022/04/17 01:49:05;;;;;;;18.85;13.23;;;;;;;;;;4952276;29;20046;-81
2022/04/17 01:51:37;;;;;;;21.52;14.50;;;;;;;;;;4952231;29;20467;-76
2022/04/17 01:54:04;;;;;;;24.30;16.20;;;;;;;;;;4952240;29;20034;-77
2022/04/17 01:56:30;;;;;;;14.23;10.52;;;;;;;;;;4953301;29;20114;-76
2022/04/17 01:58:56;;;;;;;22.90;15.07;;;;;;;;;;4952109;29;20054;-78
2022/04/17 02:01:22;;;;;;;19.92;14.52;;;;;;;;;;4953396;29;20023;-76
2022/04/17 02:03:48;;;;;;;13.10;8.80;;;;;;;;;;4952173;29;20489;-76
2022/04/17 02:06:14;;;;;;;18.83;10.50;;;;;;;;;;4953638;29;20062;-77
2022/04/17 02:08:43;;;;;;;23.70;12.20;;;;;;;;;;4954137;29;20089;-77
2022/04/17 02:11:10;;;;;;;17.80;13.73;;;;;;;;;;4953912;29;20032;-76
2022/04/17 02:13:36;;;;;;;15.25;11.35;;;;;;;;;;4953925;29;20019;-76
2022/04/17 02:16:02;;;;;;;14.15;10.38;;;;;;;;;;4953893;29;20030;-76
2022/04/17 02:18:28;;;;;;;18.50;10.38;;;;;;;;;;4953625;29;20027;-76
2022/04/17 02:20:55;;;;;;;16.88;10.52;;;;;;;;;;4952196;29;20059;-76
2022/04/17 02:23:21;;;;;;;13.55;9.23;;;;;;;;;;4953782;29;20462;-77
2022/04/17 02:25:47;;;;;;;13.88;8.85;;;;;;;;;;4953646;29;20483;-77
2022/04/17 02:28:14;;;;;;;11.95;8.80;;;;;;;;;;4953383;29;20046;-78
2022/04/17 02:30:40;;;;;;;20.15;9.30;;;;;;;;;;4952369;28;20044;-77
2022/04/17 02:33:07;;;;;;;13.60;8.82;;;;;;;;;;4952354;28;20051;-78
2022/04/17 02:35:33;;;;;;;14.70;6.57;;;;;;;;;;4952463;28;20405;-77
2022/04/17 02:37:59;;;;;;;13.13;7.95;;;;;;;;;;4953316;29;20051;-77
2022/04/17 02:40:25;;;;;;;17.58;7.53;;;;;;;;;;4953652;29;20086;-78
2022/04/17 02:42:53;;;;;;;12.88;6.13;;;;;;;;;;4952263;29;20110;-77
2022/04/17 02:45:19;;;;;;;19.48;8.82;;;;;;;;;;4952366;29;20571;-78
2022/04/17 02:47:46;;;;;;;12.02;7.07;;;;;;;;;;4952185;28;20479;-78
2022/04/17 02:50:17;;;;;;;14.52;7.22;;;;;;;;;;4952216;28;20393;-76
2022/04/17 02:52:43;;;;;;;5.18;4.20;;;;;;;;;;4956692;29;20094;-77
2022/04/17 02:55:10;;;;;;;7.07;4.40;;;;;;;;;;4957217;29;20034;-76
2022/04/17 02:57:36;;;;;;;10.48;6.30;;;;;;;;;;4955931;29;20473;-76
2022/04/17 03:00:04;;;;;;;13.98;5.15;;;;;;;;;;4955919;28;20382;-76
2022/04/17 03:07:59;;;;;;;10.40;5.80;;;;;;;;;;4956739;29;20078;-76
2022/04/17 03:10:25;;;;;;;10.80;5.05;;;;;;;;;;4956628;29;20054;-78
2022/04/17 03:12:51;;;;;;;5.85;4.43;;;;;;;;;;4955702;28;20023;-78
2022/04/17 03:15:17;;;;;;;8.75;4.43;;;;;;;;;;4955690;28;20086;-78
2022/04/17 03:17:44;;;;;;;7.57;3.53;;;;;;;;;;4955304;28;20131;-76
2022/04/17 03:20:10;;;;;;;11.90;5.97;;;;;;;;;;4956757;29;20041;-77
2022/04/17 03:22:36;;;;;;;5.30;3.83;;;;;;;;;;4955524;28;20071;-77
2022/04/17 03:25:06;;;;;;;6.82;4.13;;;;;;;;;;4956695;29;20019;-76
2022/04/17 03:27:32;;;;;;;9.82;4.40;;;;;;;;;;4955479;28;20459;-77
2022/04/17 03:29:59;;;;;;;6.30;4.68;;;;;;;;;;4956560;29;20492;-77
2022/04/17 03:32:25;;;;;;;7.13;4.55;;;;;;;;;;4956640;29;20055;-76
2022/04/17 03:34:51;;;;;;;6.10;3.90;;;;;;;;;;4956481;29;20035;-77
2022/04/17 03:37:18;;;;;;;4.63;3.05;;;;;;;;;;4956246;29;20542;-77
2022/04/17 03:39:48;;;;;;;8.70;3.85;;;;;;;;;;4956489;29;20471;-77
2022/04/17 03:42:15;;;;;;;7.43;4.40;;;;;;;;;;4955093;28;20031;-77
2022/04/17 03:44:41;;;;;;;7.88;5.40;;;;;;;;;;4956130;29;20030;-76
2022/04/17 03:47:07;;;;;;;11.15;5.10;;;;;;;;;;4956391;29;20027;-77
2022/04/17 03:49:33;;;;;;;10.57;5.53;;;;;;;;;;4956101;29;20323;-76
2022/04/17 03:52:02;;;;;;;6.55;4.78;;;;;;;;;;4954615;28;20034;-77
2022/04/17 03:54:28;;;;;;;7.65;3.72;;;;;;;;;;4956097;29;20102;-77
2022/04/17 03:56:55;;;;;;;6.13;4.13;;;;;;;;;;4954963;28;20034;-77
2022/04/17 03:59:21;;;;;;;10.25;4.63;;;;;;;;;;4953943;28;20031;-76
2022/04/17 04:01:47;;;;;;;7.00;3.38;;;;;;;;;;4955169;28;20019;-76
2022/04/17 04:04:14;;;;;;;7.28;4.45;;;;;;;;;;4954099;28;20027;-78
2022/04/17 04:06:41;;;;;;;4.05;2.95;;;;;;;;;;4955379;29;20051;-77
2022/04/17 04:09:07;;;;;;;5.50;3.80;;;;;;;;;;4955158;29;20039;-76
2022/04/17 04:11:33;;;;;;;8.82;4.35;;;;;;;;;;4955375;29;20019;-77
2022/04/17 04:13:59;;;;;;;5.80;3.38;;;;;;;;;;4955396;29;20027;-76
2022/04/17 04:16:26;;;;;;;5.03;3.20;;;;;;;;;;4955738;29;20066;-78
2022/04/17 04:18:52;;;;;;;5.25;3.58;;;;;;;;;;4955591;29;20111;-78
2022/04/17 04:21:18;;;;;;;6.03;3.60;;;;;;;;;;4955108;29;20391;-81
2022/04/17 04:23:44;;;;;;;5.40;3.85;;;;;;;;;;4955223;29;20042;-76
2022/04/17 04:26:10;;;;;;;6.60;4.38;;;;;;;;;;4955509;29;20031;-76
2022/04/17 04:28:36;;;;;;;6.38;3.80;;;;;;;;;;4953322;28;20928;-79
2022/04/17 04:31:03;;;;;;;7.32;3.97;;;;;;;;;;4953773;28;20039;-80
2022/04/17 04:33:31;;;;;;;13.23;6.50;;;;;;;;;;4952366;29;20043;-81
2022/04/17 04:35:58;;;;;;;6.35;3.42;;;;;;;;;;4952331;29;20023;-78
2022/04/17 04:38:24;;;;;;;7.63;4.07;;;;;;;;;;4952996;29;20024;-77
2022/04/17 04:40:51;;;;;;;8.55;4.20;;;;;;;;;;4952210;28;20025;-77
2022/04/17 04:43:17;;;;;;;9.93;5.32;;;;;;;;;;4952193;29;20387;-78
2022/04/17 04:51:13;;;;;;;7.20;3.90;;;;;;;;;;4952956;29;20042;-80
2022/04/17 04:53:43;;;;;;;13.32;4.15;;;;;;;;;;4954364;29;20042;-82
2022/04/17 04:56:09;;;;;;;5.63;3.58;;;;;;;;;;4952188;29;20020;-81
2022/04/17 04:58:35;;;;;;;3.65;2.45;;;;;;;;;;4953327;28;20023;-79
2022/04/17 05:01:01;;;;;;;7.53;3.72;;;;;;;;;;4954785;29;20023;-80
2022/04/17 05:03:27;;;;;;;5.88;3.35;;;;;;;;;;4953233;28;20019;-83
2022/04/17 05:05:53;;;;;;;8.95;5.30;;;;;;;;;;4953242;28;20023;-80
2022/04/17 05:08:19;;;;;;;8.60;4.15;;;;;;;;;;4953108;28;20070;-79
2022/04/17 05:10:46;;;;;;;7.20;3.80;;;;;;;;;;4952757;28;20027;-79
2022/04/17 05:13:12;;;;;;;7.35;4.25;;;;;;;;;;4953481;28;20024;-79
2022/04/17 05:15:39;;;;;;;8.57;3.88;;;;;;;;;;4953954;29;20111;-81
2022/04/17 05:18:05;;;;;;;5.85;4.05;;;;;;;;;;4954243;29;20098;-78
2022/04/17 05:20:34;;;;;;;6.65;4.28;;;;;;;;;;4952916;28;20381;-78
2022/04/17 05:23:26;;;;;;;14.63;8.50;;;;;;;;;;4952774;28;20450;-79
2022/04/17 05:25:56;;;;;;;6.57;4.25;;;;;;;;;;4950522;29;20034;-77
2022/04/17 05:28:22;;;;;;;9.65;4.55;;;;;;;;;;4952637;28;20117;-80
2022/04/17 05:30:49;;;;;;;6.15;3.95;;;;;;;;;;4952584;29;20031;-77
2022/04/17 05:33:18;;;;;;;8.93;4.00;;;;;;;;;;4952541;28;20082;-77
2022/04/17 05:35:45;;;;;;;5.55;3.63;;;;;;;;;;4953612;29;20071;-78
2022/04/17 05:38:11;;;;;;;7.38;5.00;;;;;;;;;;4952398;28;20024;-79
2022/04/17 05:40:44;;;;;;;7.60;4.40;;;;;;;;;;4953337;29;20427;-81
2022/04/17 05:43:11;;;;;;;6.38;4.55;;;;;;;;;;4950142;29;20038;-79
2022/04/17 05:45:37;;;;;;;8.10;5.28;;;;;;;;;;4953542;29;20055;-78
2022/04/17 05:48:05;;;;;;;10.90;3.97;;;;;;;;;;4951922;28;20027;-80
2022/04/17 05:50:31;;;;;;;5.32;3.88;;;;;;;;;;4953457;29;20541;-77
2022/04/17 05:52:57;;;;;;;6.18;3.47;;;;;;;;;;4952193;28;20110;-77
2022/04/17 05:55:23;;;;;;;6.40;3.60;;;;;;;;;;4953418;29;20081;-81
2022/04/17 05:57:49;;;;;;;6.40;4.18;;;;;;;;;;4952105;28;20020;-78
2022/04/17 06:00:16;;;;;;;5.68;3.72;;;;;;;;;;4952006;28;20019;-78
2022/04/17 06:02:46;;;;;;;6.43;4.60;;;;;;;;;;4952049;29;20058;-78
2022/04/17 06:05:13;;;;;;;7.40;4.97;;;;;;;;;;4953224;29;20015;-78
2022/04/17 06:07:39;;;;;;;5.93;3.80;;;;;;;;;;4952061;28;20031;-78
2022/04/17 06:10:06;;;;;;;5.30;3.17;;;;;;;;;;4951718;28;20081;-78
2022/04/17 06:12:32;;;;;;;5.88;4.30;;;;;;;;;;4951751;28;20383;-77
2022/04/17 06:14:59;;;;;;;9.38;4.32;;;;;;;;;;4951390;28;20023;-78
2022/04/17 06:17:25;;;;;;;6.65;4.97;;;;;;;;;;4951613;28;20020;-79
2022/04/17 06:19:51;;;;;;;8.07;4.88;;;;;;;;;;4952443;29;20012;-78
2022/04/17 06:22:18;;;;;;;7.93;5.35;;;;;;;;;;4951331;28;20019;-78
2022/04/17 06:24:44;;;;;;;6.43;4.85;;;;;;;;;;4951763;28;20031;-78
2022/04/17 06:27:10;;;;;;;8.25;4.32;;;;;;;;;;4956693;29;20016;-78
2022/04/17 06:29:36;;;;;;;7.82;4.35;;;;;;;;;;4956737;29;20031;-78
2022/04/17 06:32:02;;;;;;;7.25;4.45;;;;;;;;;;4956792;29;20054;-77
2022/04/17 06:34:28;;;;;;;6.22;4.18;;;;;;;;;;4956839;29;20023;-77
2022/04/17 06:36:54;;;;;;;7.47;3.70;;;;;;;;;;4956740;29;20059;-78
2022/04/17 06:39:20;;;;;;;9.23;6.05;;;;;;;;;;4955135;28;20070;-78
2022/04/17 06:41:47;;;;;;;7.50;5.03;;;;;;;;;;4955309;28;20062;-77
2022/04/17 06:44:13;;;;;;;10.90;4.70;;;;;;;;;;4956725;29;20098;-77
2022/04/17 06:46:40;;;;;;;8.50;4.50;;;;;;;;;;4955478;28;20023;-78
2022/04/17 06:49:09;;;;;;;8.25;4.88;;;;;;;;;;4955316;29;20490;-79
2022/04/17 06:51:35;;;;;;;8.18;5.55;;;;;;;;;;4956670;29;20485;-79
2022/04/17 06:54:01;;;;;;;23.05;12.25;;;;;;;;;;4956345;29;20023;-78
2022/04/17 06:56:27;;;;;;;9.60;5.68;;;;;;;;;;4956267;29;20062;-77
2022/04/17 06:58:53;;;;;;;32.90;17.80;;;;;;;;;;4956164;29;20055;-77
2022/04/17 07:01:19;;;;;;;8.77;5.95;;;;;;;;;;4955087;29;20023;-77
2022/04/17 07:03:45;;;;;;;7.28;4.28;;;;;;;;;;4954867;28;20426;-79
2022/04/17 07:06:12;;;;;;;13.40;8.35;;;;;;;;;;4955012;28;20043;-77
2022/04/17 07:08:38;;;;;;;7.18;4.72;;;;;;;;;;4955057;28;20031;-76
2022/04/17 07:11:04;;;;;;;11.35;4.78;;;;;;;;;;4956329;29;20016;-77
2022/04/17 07:13:30;;;;;;;6.93;4.35;;;;;;;;;;4956501;29;20023;-76
2022/04/17 07:15:57;;;;;;;8.07;5.20;;;;;;;;;;4956306;29;20027;-78
2022/04/17 07:18:23;;;;;;;7.45;5.35;;;;;;;;;;4956216;29;20026;-76
2022/04/17 07:20:49;;;;;;;8.00;5.10;;;;;;;;;;4955871;29;20420;-77
2022/04/17 07:23:15;;;;;;;8.38;3.95;;;;;;;;;;4955901;29;20020;-77
2022/04/17 07:25:44;;;;;;;6.80;4.75;;;;;;;;;;4954578;28;20387;-77
2022/04/17 07:28:14;;;;;;;5.57;3.92;;;;;;;;;;4953287;29;20024;-77
2022/04/17 07:30:40;;;;;;;11.75;5.70;;;;;;;;;;4954334;29;20031;-77
2022/04/17 07:33:06;;;;;;;6.05;4.45;;;;;;;;;;4955254;29;20047;-79
2022/04/17 07:35:32;;;;;;;12.05;6.05;;;;;;;;;;4954435;28;20033;-77
2022/04/17 07:37:58;;;;;;;9.38;6.85;;;;;;;;;;4954911;28;20100;-77
2022/04/17 07:40:26;;;;;;;8.98;5.03;;;;;;;;;;4955630;29;20019;-78
2022/04/17 07:42:53;;;;;;;8.70;5.07;;;;;;;;;;4954295;29;20030;-78
2022/04/17 07:45:20;;;;;;;5.35;3.33;;;;;;;;;;4955517;29;20055;-77
2022/04/17 07:47:47;;;;;;;8.00;4.82;;;;;;;;;;4954153;29;20054;-79
2022/04/17 07:50:15;;;;;;;7.20;4.68;;;;;;;;;;4954022;28;20394;-79
2022/04/17 07:52:42;;;;;;;7.75;4.90;;;;;;;;;;4955521;29;20451;-78
2022/04/17 07:55:08;;;;;;;6.68;4.63;;;;;;;;;;4955150;29;20066;-80
2022/04/17 07:58:01;;;;;;;5.47;4.15;;;;;;;;;;4955174;29;20015;-79
2022/04/17 08:00:29;;;;;;;7.38;4.22;;;;;;;;;;4953711;29;20030;-79
2022/04/17 08:02:59;;;;;;;11.65;4.90;;;;;;;;;;4954094;29;20566;-77
2022/04/17 08:05:25;;;;;;;5.47;4.18;;;;;;;;;;4955072;29;20437;-79
2022/04/17 08:07:54;;;;;;;7.82;4.38;;;;;;;;;;4952712;29;20015;-80
2022/04/17 08:10:20;;;;;;;6.95;4.50;;;;;;;;;;4955049;29;20039;-79
2022/04/17 08:12:47;;;;;;;6.65;4.57;;;;;;;;;;4953668;28;20430;-78
2022/04/17 08:15:13;;;;;;;9.02;5.38;;;;;;;;;;4955233;29;20378;-77
2022/04/17 08:17:39;;;;;;;5.88;4.28;;;;;;;;;;4953687;28;20387;-82
2022/04/17 08:20:05;;;;;;;6.40;4.65;;;;;;;;;;4953504;28;20039;-81
2022/04/17 08:22:31;;;;;;;4.68;3.20;;;;;;;;;;4952208;29;20020;-82
2022/04/17 08:24:57;;;;;;;10.35;4.75;;;;;;;;;;4953571;28;20113;-78
2022/04/17 08:27:23;;;;;;;5.68;4.25;;;;;;;;;;4954921;29;20019;-79
2022/04/17 08:29:49;;;;;;;6.40;4.30;;;;;;;;;;4953264;28;20050;-80
2022/04/17 08:32:16;;;;;;;9.80;4.88;;;;;;;;;;4953255;28;20047;-79
2022/04/17 08:34:42;;;;;;;7.07;4.57;;;;;;;;;;4953483;28;20023;-80
2022/04/17 08:37:08;;;;;;;8.95;5.00;;;;;;;;;;4954689;29;20490;-78
2022/04/17 08:39:35;;;;;;;6.72;5.07;;;;;;;;;;4955007;29;20090;-84
2022/04/17 08:42:01;;;;;;;6.75;4.78;;;;;;;;;;4954187;29;20043;-85
2022/04/17 08:44:28;;;;;;;6.10;3.83;;;;;;;;;;4955402;29;20024;-85
2022/04/17 08:46:54;;;;;;;5.13;3.28;;;;;;;;;;4954248;28;20030;-84
2022/04/17 08:49:20;;;;;;;11.15;3.92;;;;;;;;;;4952748;28;20438;-85
2022/04/17 08:51:48;;;;;;;7.55;4.72;;;;;;;;;;4954393;29;20031;-82
2022/04/17 08:54:15;;;;;;;7.60;3.38;;;;;;;;;;4953619;29;20066;-83
2022/04/17 08:56:41;;;;;;;6.30;4.82;;;;;;;;;;4953595;28;20023;-83
2022/04/17 08:59:07;;;;;;;16.17;10.70;;;;;;;;;;4953709;28;20373;-86
2022/04/17 09:01:36;;;;;;;7.82;3.95;;;;;;;;;;4954510;29;20023;-84
2022/04/17 09:04:03;;;;;;;9.70;5.47;;;;;;;;;;4953301;29;20020;-83
2022/04/17 09:06:29;;;;;;;15.45;8.95;;;;;;;;;;4953112;28;20107;-83
2022/04/17 09:08:56;;;;;;;16.25;8.07;;;;;;;;;;4952994;28;20368;-82
2022/04/17 09:11:25;;;;;;;8.77;6.07;;;;;;;;;;4953032;28;20050;-83
2022/04/17 09:13:53;;;;;;;13.48;7.47;;;;;;;;;;4954244;29;20051;-83
2022/04/17 09:16:25;;;;;;;5.47;3.60;;;;;;;;;;4953088;28;20054;-83
2022/04/17 09:18:51;;;;;;;8.48;5.07;;;;;;;;;;4954089;29;20038;-85
2022/04/17 09:21:32;;;;;;;9.05;4.32;;;;;;;;;;4952952;28;20093;-81
2022/04/17 09:24:12;;;;;;;8.45;6.93;;;;;;;;;;4951001;29;20031;-83
2022/04/17 09:26:38;;;;;;;7.65;5.00;;;;;;;;;;4951944;29;20020;-82
2022/04/17 09:29:17;;;;;;;7.40;4.18;;;;;;;;;;4952824;28;20508;-84
2022/04/17 09:31:43;;;;;;;5.20;3.78;;;;;;;;;;4951516;29;20105;-82
2022/04/17 09:34:10;;;;;;;4.45;3.10;;;;;;;;;;4953702;29;20387;-82
2022/04/17 09:36:37;;;;;;;5.95;4.38;;;;;;;;;;4954032;29;20027;-82
2022/04/17 09:39:12;;;;;;;4.95;3.15;;;;;;;;;;4951983;29;20019;-80
2022/04/17 09:41:52;;;;;;;7.45;5.60;;;;;;;;;;4951764;29;20051;-80
2022/04/17 09:44:37;;;;;;;8.80;5.25;;;;;;;;;;4950324;29;20015;-79
2022/04/17 09:47:04;;;;;;;10.90;5.63;;;;;;;;;;4951107;29;20089;-82
2022/04/17 09:49:30;;;;;;;9.52;4.70;;;;;;;;;;4952036;28;20038;-80
2022/04/17 09:52:09;;;;;;;7.20;5.13;;;;;;;;;;4952026;28;20023;-79
2022/04/17 09:54:35;;;;;;;9.25;5.15;;;;;;;;;;4949881;29;20110;-82
2022/04/17 09:57:02;;;;;;;10.23;4.55;;;;;;;;;;4952509;28;20030;-81
2022/04/17 09:59:28;;;;;;;10.32;4.65;;;;;;;;;;4951681;28;20122;-80
2022/04/17 10:01:57;;;;;;;7.38;4.82;;;;;;;;;;4952732;29;20012;-81
2022/04/17 10:04:24;;;;;;;15.13;9.27;;;;;;;;;;4953146;29;20147;-80
2022/04/17 10:06:51;;;;;;;7.53;4.53;;;;;;;;;;4951824;28;20206;-79
2022/04/17 10:09:17;;;;;;;4.53;3.25;;;;;;;;;;4953184;29;20110;-81
2022/04/17 10:11:44;;;;;;;9.13;4.82;;;;;;;;;;4951876;28;20102;-81
2022/04/17 10:14:10;;;;;;;15.23;4.60;;;;;;;;;;4952296;29;20026;-79
2022/04/17 10:16:41;;;;;;;5.70;3.75;;;;;;;;;;4952043;29;20067;-82
2022/04/17 10:19:11;;;;;;;12.48;5.43;;;;;;;;;;4953086;29;20026;-85
2022/04/17 10:21:39;;;;;;;6.03;4.53;;;;;;;;;;4951250;29;20042;-82
2022/04/17 10:24:06;;;;;;;8.32;5.45;;;;;;;;;;4953032;29;20043;-80
2022/04/17 10:26:33;;;;;;;8.07;5.82;;;;;;;;;;4951804;28;20031;-82
2022/04/17 10:29:02;;;;;;;7.72;4.93;;;;;;;;;;4952099;28;20087;-80
2022/04/17 10:31:37;;;;;;;11.85;6.05;;;;;;;;;;4950293;28;20032;-82
2022/04/17 10:34:23;;;;;;;10.45;5.50;;;;;;;;;;4949091;28;20043;-77
2022/04/17 10:37:08;;;;;;;11.75;6.13;;;;;;;;;;4949383;29;20027;-81
2022/04/17 10:39:36;;;;;;;6.35;4.45;;;;;;;;;;4951298;28;20038;-82
2022/04/17 10:42:02;;;;;;;9.20;5.93;;;;;;;;;;4948696;28;20031;-76
2022/04/17 10:44:32;;;;;;;7.38;4.30;;;;;;;;;;4952248;29;20020;-76
2022/04/17 10:46:58;;;;;;;5.97;4.25;;;;;;;;;;4951649;29;20023;-78
2022/04/17 10:49:32;;;;;;;8.82;6.50;;;;;;;;;;4953470;29;20070;-78
2022/04/17 10:51:59;;;;;;;9.25;5.00;;;;;;;;;;4951555;29;20028;-78
2022/04/17 10:54:26;;;;;;;10.52;6.10;;;;;;;;;;4948553;28;20163;-76
2022/04/17 10:56:55;;;;;;;6.78;4.15;;;;;;;;;;4949846;28;20058;-77
2022/04/17 10:59:22;;;;;;;8.55;6.15;;;;;;;;;;4951213;28;20037;-79
2022/04/17 11:01:53;;;;;;;11.55;8.65;;;;;;;;;;4950502;29;20023;-79
2022/04/17 11:04:19;;;;;;;9.82;5.78;;;;;;;;;;4952602;29;20520;-78
2022/04/17 11:06:45;;;;;;;6.32;4.82;;;;;;;;;;4951445;29;20030;-80
2022/04/17 11:09:22;;;;;;;9.80;6.13;;;;;;;;;;4949996;28;20035;-79
2022/04/17 11:11:48;;;;;;;5.65;4.28;;;;;;;;;;4950746;28;20038;-80
2022/04/17 11:14:17;;;;;;;8.95;5.90;;;;;;;;;;4954521;29;20035;-80
2022/04/17 11:16:59;;;;;;;6.97;4.15;;;;;;;;;;4953447;29;20031;-83
2022/04/17 11:19:26;;;;;;;8.18;5.70;;;;;;;;;;4953440;28;20039;-79
2022/04/17 11:21:53;;;;;;;16.63;10.07;;;;;;;;;;4955509;29;20041;-79
2022/04/17 11:24:20;;;;;;;11.60;7.68;;;;;;;;;;4955259;29;20161;-78
2022/04/17 11:26:52;;;;;;;9.15;7.25;;;;;;;;;;4955458;29;20020;-79
2022/04/17 11:29:34;;;;;;;6.40;4.40;;;;;;;;;;4955912;29;20035;-79
2022/04/17 11:32:00;;;;;;;8.63;5.82;;;;;;;;;;4953198;29;20086;-80
2022/04/17 11:34:41;;;;;;;8.60;5.03;;;;;;;;;;4953472;28;20085;-78
2022/04/17 11:37:07;;;;;;;7.05;4.63;;;;;;;;;;4951401;29;20027;-81
2022/04/17 11:39:34;;;;;;;10.05;5.75;;;;;;;;;;4953261;28;20418;-80
2022/04/17 11:42:00;;;;;;;5.97;4.05;;;;;;;;;;4952374;29;20486;-79
2022/04/17 11:44:26;;;;;;;8.35;5.05;;;;;;;;;;4953344;28;20023;-79
2022/04/17 11:46:52;;;;;;;11.55;5.90;;;;;;;;;;4954343;28;20029;-80
2022/04/17 11:49:19;;;;;;;9.68;4.22;;;;;;;;;;4954344;28;20038;-81
2022/04/17 11:51:45;;;;;;;8.88;4.72;;;;;;;;;;4954429;28;20106;-81
2022/04/17 11:54:30;;;;;;;7.35;5.18;;;;;;;;;;4954341;28;20022;-81
2022/04/17 11:56:56;;;;;;;14.75;8.13;;;;;;;;;;4954714;29;20114;-79
2022/04/17 11:59:23;;;;;;;9.98;6.05;;;;;;;;;;4954151;28;20046;-81
2022/04/17 12:02:08;;;;;;;7.00;4.95;;;;;;;;;;4953936;29;20023;-81
2022/04/17 12:04:34;;;;;;;16.52;5.45;;;;;;;;;;4953169;29;20023;-80
2022/04/17 12:07:00;;;;;;;9.25;4.53;;;;;;;;;;4955329;29;20530;-81
2022/04/17 12:09:26;;;;;;;7.32;4.80;;;;;;;;;;4953903;28;20426;-81
2022/04/17 12:11:52;;;;;;;11.88;8.18;;;;;;;;;;4953495;28;20068;-81
2022/04/17 12:14:31;;;;;;;7.30;4.55;;;;;;;;;;4953603;28;20015;-82
2022/04/17 12:16:57;;;;;;;9.95;4.50;;;;;;;;;;4955100;29;20082;-81
2022/04/17 12:19:27;;;;;;;13.23;5.82;;;;;;;;;;4953873;28;20043;-82
2022/04/17 12:21:53;;;;;;;11.07;5.38;;;;;;;;;;4954744;29;20511;-81
2022/04/17 12:24:22;;;;;;;9.88;3.78;;;;;;;;;;4953492;28;20043;-80
2022/04/17 12:26:49;;;;;;;5.47;3.72;;;;;;;;;;4953820;28;20050;-82
2022/04/17 12:29:15;;;;;;;13.27;4.65;;;;;;;;;;4955169;29;20511;-81
2022/04/17 12:31:42;;;;;;;13.50;5.00;;;;;;;;;;4951668;28;20043;-79
2022/04/17 12:34:08;;;;;;;6.70;5.05;;;;;;;;;;4953026;28;20023;-81
2022/04/17 12:36:37;;;;;;;9.77;4.25;;;;;;;;;;4952567;29;20020;-80
2022/04/17 12:39:04;;;;;;;6.05;3.33;;;;;;;;;;4951078;29;20034;-80
2022/04/17 12:41:37;;;;;;;8.27;5.25;;;;;;;;;;4953266;28;20027;-81
2022/04/17 12:44:03;;;;;;;6.22;4.00;;;;;;;;;;4954845;29;20016;-79
2022/04/17 12:46:31;;;;;;;6.93;3.15;;;;;;;;;;4954637;29;20016;-79
2022/04/17 12:49:02;;;;;;;7.05;4.63;;;;;;;;;;4954423;29;20890;-79
2022/04/17 12:51:28;;;;;;;5.53;3.40;;;;;;;;;;4951037;29;20027;-79
2022/04/17 12:53:54;;;;;;;5.75;3.80;;;;;;;;;;4952270;29;20023;-79
2022/04/17 12:56:25;;;;;;;13.73;5.97;;;;;;;;;;4952532;29;20019;-76
2022/04/17 12:58:55;;;;;;;5.88;4.47;;;;;;;;;;4952218;29;20546;-79
2022/04/17 13:01:22;;;;;;;8.25;4.55;;;;;;;;;;4949969;29;20495;-74
2022/04/17 13:03:48;;;;;;;5.43;3.60;;;;;;;;;;4952544;29;20027;-76
2022/04/17 13:06:21;;;;;;;13.15;3.53;;;;;;;;;;4954572;29;20032;-77
2022/04/17 13:09:07;;;;;;;11.32;3.20;;;;;;;;;;4954198;29;21011;-76
2022/04/17 13:11:36;;;;;;;10.38;4.30;;;;;;;;;;4951375;29;20174;-78
2022/04/17 13:14:04;;;;;;;5.30;3.25;;;;;;;;;;4954209;29;20103;-76
2022/04/17 13:16:31;;;;;;;4.60;3.00;;;;;;;;;;4953998;29;20015;-77
2022/04/17 13:18:57;;;;;;;8.90;4.40;;;;;;;;;;4953776;29;20027;-78
2022/04/17 13:21:23;;;;;;;7.55;4.30;;;;;;;;;;4952643;28;20386;-79
2022/04/17 13:23:49;;;;;;;5.47;3.38;;;;;;;;;;4953933;29;20081;-80
2022/04/17 13:26:15;;;;;;;8.45;3.00;;;;;;;;;;4952560;28;20173;-78
2022/04/17 13:28:41;;;;;;;14.98;9.35;;;;;;;;;;4953669;29;20415;-78
2022/04/17 13:31:08;;;;;;;20.52;12.32;;;;;;;;;;4953956;29;20031;-79
2022/04/17 13:33:34;;;;;;;9.60;5.07;;;;;;;;;;4953726;29;20047;-79
2022/04/17 13:36:00;;;;;;;6.90;4.57;;;;;;;;;;4953239;28;20502;-78
2022/04/17 13:38:27;;;;;;;18.30;7.55;;;;;;;;;;4953722;29;20050;-78
2022/04/17 13:40:54;;;;;;;11.02;5.25;;;;;;;;;;4953393;29;20026;-78
2022/04/17 13:43:23;;;;;;;9.80;4.55;;;;;;;;;;4953605;29;20025;-78
2022/04/17 13:45:49;;;;;;;6.57;3.50;;;;;;;;;;4952323;28;20027;-78
2022/04/17 13:48:15;;;;;;;7.32;3.03;;;;;;;;;;4952125;28;20123;-78
2022/04/17 13:50:41;;;;;;;4.80;3.72;;;;;;;;;;4951872;28;20066;-79
2022/04/17 13:53:07;;;;;;;7.68;4.72;;;;;;;;;;4953200;29;20023;-78
2022/04/17 13:55:35;;;;;;;12.20;5.82;;;;;;;;;;4953624;29;20057;-79
2022/04/17 13:58:01;;;;;;;14.25;5.97;;;;;;;;;;4953159;29;20440;-78
2022/04/17 14:00:28;;;;;;;10.60;4.93;;;;;;;;;;4952545;28;20090;-78
2022/04/17 14:02:54;;;;;;;8.40;4.30;;;;;;;;;;4952961;29;20047;-79
2022/04/17 14:05:21;;;;;;;10.30;4.65;;;;;;;;;;4952122;28;20020;-77
2022/04/17 14:07:47;;;;;;;8.13;3.95;;;;;;;;;;4952140;29;20478;-77
2022/04/17 14:10:13;;;;;;;8.68;5.65;;;;;;;;;;4951874;28;20478;-79
2022/04/17 14:12:39;;;;;;;9.98;3.67;;;;;;;;;;4953277;29;20185;-78
2022/04/17 14:15:09;;;;;;;7.72;3.40;;;;;;;;;;4952774;29;20098;-76
2022/04/17 14:17:35;;;;;;;10.82;4.45;;;;;;;;;;4947668;28;20309;-77
2022/04/17 14:20:01;;;;;;;14.18;6.15;;;;;;;;;;4952218;29;20501;-75
2022/04/17 14:22:27;;;;;;;5.57;3.63;;;;;;;;;;4951845;28;20419;-78
2022/04/17 14:24:54;;;;;;;5.40;3.65;;;;;;;;;;4951118;28;20074;-77
2022/04/17 14:27:20;;;;;;;8.10;3.83;;;;;;;;;;4951956;28;20019;-78
2022/04/17 14:29:47;;;;;;;7.53;3.88;;;;;;;;;;4952565;29;20042;-77
2022/04/17 14:32:13;;;;;;;6.45;3.47;;;;;;;;;;4952949;29;20118;-77
2022/04/17 14:34:40;;;;;;;7.22;3.40;;;;;;;;;;4953195;29;20474;-77
2022/04/17 14:37:06;;;;;;;11.68;3.75;;;;;;;;;;4952731;29;20023;-78
2022/04/17 14:39:32;;;;;;;14.43;6.20;;;;;;;;;;4951705;28;20026;-78
2022/04/17 14:41:58;;;;;;;18.65;7.47;;;;;;;;;;4952785;29;20102;-78
2022/04/17 14:44:24;;;;;;;12.52;3.63;;;;;;;;;;4952516;29;20019;-77
2022/04/17 14:46:50;;;;;;;7.25;3.28;;;;;;;;;;4954476;28;20016;-78
2022/04/17 14:49:16;;;;;;;5.60;3.22;;;;;;;;;;4955278;28;20038;-77
2022/04/17 14:51:43;;;;;;;9.45;4.32;;;;;;;;;;4956694;29;20025;-78